sensor_id;sensor_type;location;lat;lon;timestamp;P1;durP1;ratioP1;P2;durP2;ratioP2
41903;SDS011;27586;51.124;4.182;2024-02-26T00:00:28;3.08;;;1.67;;
41903;SDS011;27586;51.124;4.182;2024-02-26T00:02:55;2.65;;;1.70;;
41903;SDS011;27586;51.124;4.182;2024-02-26T00:05:21;4.18;;;1.70;;
41903;SDS011;27586;51.124;4.182;2024-02-26T00:07:46;1.90;;;1.42;;
41903;SDS011;27586;51.124;4.182;2024-02-26T00:10:13;1.65;;;1.55;;
41903;SDS011;27586;51.124;4.182;2024-02-26T00:12:39;2.80;;;2.00;;
41903;SDS011;27586;51.124;4.182;2024-02-26T00:15:06;2.15;;;1.60;;
41903;SDS011;27586;51.124;4.182;2024-02-26T00:17:32;2.25;;;1.40;;
41903;SDS011;27586;51.124;4.182;2024-02-26T00:19:58;2.97;;;1.42;;
41903;SDS011;27586;51.124;4.182;2024-02-26T00:22:25;2.38;;;1.55;;
41903;SDS011;27586;51.124;4.182;2024-02-26T00:24:51;2.05;;;1.40;;
41903;SDS011;27586;51.124;4.182;2024-02-26T00:27:17;2.10;;;1.50;;
41903;SDS011;27586;51.124;4.182;2024-02-26T00:29:43;2.08;;;1.60;;
41903;SDS011;27586;51.124;4.182;2024-02-26T00:32:08;4.32;;;1.55;;
41903;SDS011;27586;51.124;4.182;2024-02-26T00:34:34;2.45;;;1.50;;
41903;SDS011;27586;51.124;4.182;2024-02-26T00:37:00;2.33;;;1.70;;
41903;SDS011;27586;51.124;4.182;2024-02-26T00:39:26;2.70;;;1.60;;
41903;SDS011;27586;51.124;4.182;2024-02-26T00:41:52;2.40;;;1.63;;
41903;SDS011;27586;51.124;4.182;2024-02-26T00:44:17;1.75;;;1.60;;
41903;SDS011;27586;51.124;4.182;2024-02-26T00:46:43;1.77;;;1.50;;
41903;SDS011;27586;51.124;4.182;2024-02-26T00:49:09;1.65;;;1.50;;
41903;SDS011;27586;51.124;4.182;2024-02-26T00:51:35;1.52;;;1.40;;
41903;SDS011;27586;51.124;4.182;2024-02-26T00:54:00;3.88;;;1.70;;
41903;SDS011;27586;51.124;4.182;2024-02-26T00:56:27;2.67;;;1.48;;
41903;SDS011;27586;51.124;4.182;2024-02-26T00:58:52;2.65;;;1.45;;
41903;SDS011;27586;51.124;4.182;2024-02-26T01:01:18;2.20;;;1.50;;
41903;SDS011;27586;51.124;4.182;2024-02-26T01:03:44;2.13;;;1.83;;
41903;SDS011;27586;51.124;4.182;2024-02-26T01:06:10;1.95;;;1.55;;
41903;SDS011;27586;51.124;4.182;2024-02-26T01:08:36;2.20;;;1.73;;
41903;SDS011;27586;51.124;4.182;2024-02-26T01:11:02;2.38;;;1.63;;
41903;SDS011;27586;51.124;4.182;2024-02-26T01:13:28;1.70;;;1.60;;
41903;SDS011;27586;51.124;4.182;2024-02-26T01:15:54;2.13;;;1.45;;
41903;SDS011;27586;51.124;4.182;2024-02-26T01:18:20;2.75;;;2.05;;
41903;SDS011;27586;51.124;4.182;2024-02-26T01:20:46;1.95;;;1.75;;
41903;SDS011;27586;51.124;4.182;2024-02-26T01:23:12;3.35;;;1.60;;
41903;SDS011;27586;51.124;4.182;2024-02-26T01:25:37;2.65;;;1.70;;
41903;SDS011;27586;51.124;4.182;2024-02-26T01:28:04;2.40;;;1.70;;
41903;SDS011;27586;51.124;4.182;2024-02-26T01:30:30;2.60;;;1.70;;
41903;SDS011;27586;51.124;4.182;2024-02-26T01:32:56;1.67;;;1.45;;
41903;SDS011;27586;51.124;4.182;2024-02-26T01:35:22;3.45;;;1.85;;
41903;SDS011;27586;51.124;4.182;2024-02-26T01:37:48;1.70;;;1.50;;
41903;SDS011;27586;51.124;4.182;2024-02-26T01:40:13;2.22;;;1.80;;
41903;SDS011;27586;51.124;4.182;2024-02-26T01:42:44;2.55;;;1.67;;
41903;SDS011;27586;51.124;4.182;2024-02-26T01:45:12;1.80;;;1.60;;
41903;SDS011;27586;51.124;4.182;2024-02-26T01:47:41;3.15;;;1.83;;
41903;SDS011;27586;51.124;4.182;2024-02-26T01:50:07;3.13;;;1.83;;
41903;SDS011;27586;51.124;4.182;2024-02-26T01:52:33;2.83;;;1.80;;
41903;SDS011;27586;51.124;4.182;2024-02-26T01:54:59;2.88;;;1.70;;
41903;SDS011;27586;51.124;4.182;2024-02-26T01:57:26;1.77;;;1.67;;
41903;SDS011;27586;51.124;4.182;2024-02-26T01:59:53;4.80;;;1.88;;
41903;SDS011;27586;51.124;4.182;2024-02-26T02:02:19;3.35;;;2.10;;
41903;SDS011;27586;51.124;4.182;2024-02-26T02:04:45;2.10;;;1.90;;
41903;SDS011;27586;51.124;4.182;2024-02-26T02:07:11;2.75;;;2.40;;
41903;SDS011;27586;51.124;4.182;2024-02-26T02:09:38;2.47;;;1.90;;
41903;SDS011;27586;51.124;4.182;2024-02-26T02:12:03;3.47;;;2.35;;
41903;SDS011;27586;51.124;4.182;2024-02-26T02:14:31;3.10;;;2.17;;
41903;SDS011;27586;51.124;4.182;2024-02-26T02:16:57;2.33;;;2.10;;
41903;SDS011;27586;51.124;4.182;2024-02-26T02:19:22;2.45;;;2.22;;
41903;SDS011;27586;51.124;4.182;2024-02-26T02:21:48;3.72;;;2.72;;
41903;SDS011;27586;51.124;4.182;2024-02-26T02:24:14;3.58;;;2.45;;
41903;SDS011;27586;51.124;4.182;2024-02-26T02:26:39;3.63;;;2.75;;
41903;SDS011;27586;51.124;4.182;2024-02-26T02:29:05;3.17;;;2.65;;
41903;SDS011;27586;51.124;4.182;2024-02-26T02:31:32;3.83;;;2.50;;
41903;SDS011;27586;51.124;4.182;2024-02-26T02:33:58;4.00;;;3.00;;
41903;SDS011;27586;51.124;4.182;2024-02-26T02:36:25;2.95;;;2.35;;
41903;SDS011;27586;51.124;4.182;2024-02-26T02:38:51;5.10;;;2.70;;
41903;SDS011;27586;51.124;4.182;2024-02-26T02:41:17;2.70;;;2.28;;
41903;SDS011;27586;51.124;4.182;2024-02-26T02:43:43;3.30;;;2.70;;
41903;SDS011;27586;51.124;4.182;2024-02-26T02:46:08;3.38;;;2.70;;
41903;SDS011;27586;51.124;4.182;2024-02-26T02:48:36;4.28;;;2.67;;
41903;SDS011;27586;51.124;4.182;2024-02-26T02:51:02;3.75;;;2.60;;
41903;SDS011;27586;51.124;4.182;2024-02-26T02:53:28;3.50;;;2.92;;
41903;SDS011;27586;51.124;4.182;2024-02-26T02:55:54;4.60;;;3.17;;
41903;SDS011;27586;51.124;4.182;2024-02-26T02:58:19;4.47;;;3.50;;
41903;SDS011;27586;51.124;4.182;2024-02-26T03:00:45;3.40;;;3.10;;
41903;SDS011;27586;51.124;4.182;2024-02-26T03:03:11;4.05;;;3.65;;
41903;SDS011;27586;51.124;4.182;2024-02-26T03:05:36;4.30;;;3.90;;
41903;SDS011;27586;51.124;4.182;2024-02-26T03:08:03;4.80;;;3.95;;
41903;SDS011;27586;51.124;4.182;2024-02-26T03:10:29;4.18;;;3.78;;
41903;SDS011;27586;51.124;4.182;2024-02-26T03:12:55;5.00;;;4.50;;
41903;SDS011;27586;51.124;4.182;2024-02-26T03:15:21;5.63;;;4.50;;
41903;SDS011;27586;51.124;4.182;2024-02-26T03:17:47;5.93;;;4.20;;
41903;SDS011;27586;51.124;4.182;2024-02-26T03:20:12;5.30;;;4.80;;
41903;SDS011;27586;51.124;4.182;2024-02-26T03:22:38;5.25;;;4.75;;
41903;SDS011;27586;51.124;4.182;2024-02-26T03:25:05;6.00;;;5.40;;
41903;SDS011;27586;51.124;4.182;2024-02-26T03:27:31;5.68;;;5.18;;
41903;SDS011;27586;51.124;4.182;2024-02-26T03:29:57;7.18;;;5.28;;
41903;SDS011;27586;51.124;4.182;2024-02-26T03:32:23;6.25;;;5.55;;
41903;SDS011;27586;51.124;4.182;2024-02-26T03:34:48;6.47;;;5.72;;
41903;SDS011;27586;51.124;4.182;2024-02-26T03:37:14;6.85;;;6.15;;
41903;SDS011;27586;51.124;4.182;2024-02-26T03:39:40;7.50;;;6.53;;
41903;SDS011;27586;51.124;4.182;2024-02-26T03:42:06;7.38;;;6.68;;
41903;SDS011;27586;51.124;4.182;2024-02-26T03:44:31;7.40;;;6.70;;
41903;SDS011;27586;51.124;4.182;2024-02-26T03:46:57;8.68;;;7.78;;
41903;SDS011;27586;51.124;4.182;2024-02-26T03:49:22;8.07;;;7.28;;
41903;SDS011;27586;51.124;4.182;2024-02-26T03:51:48;9.10;;;7.60;;
41903;SDS011;27586;51.124;4.182;2024-02-26T03:54:14;10.50;;;8.70;;
41903;SDS011;27586;51.124;4.182;2024-02-26T03:56:40;9.88;;;8.88;;
41903;SDS011;27586;51.124;4.182;2024-02-26T03:59:05;10.18;;;9.00;;
41903;SDS011;27586;51.124;4.182;2024-02-26T04:01:31;10.27;;;9.23;;
41903;SDS011;27586;51.124;4.182;2024-02-26T04:03:57;10.88;;;8.60;;
41903;SDS011;27586;51.124;4.182;2024-02-26T04:06:22;11.60;;;8.80;;
41903;SDS011;27586;51.124;4.182;2024-02-26T04:08:48;9.82;;;8.82;;
41903;SDS011;27586;51.124;4.182;2024-02-26T04:11:14;9.00;;;7.82;;
41903;SDS011;27586;51.124;4.182;2024-02-26T04:13:43;9.65;;;8.68;;
41903;SDS011;27586;51.124;4.182;2024-02-26T04:16:14;9.88;;;8.90;;
41903;SDS011;27586;51.124;4.182;2024-02-26T04:18:41;9.18;;;8.27;;
41903;SDS011;27586;51.124;4.182;2024-02-26T04:21:07;12.13;;;9.63;;
41903;SDS011;27586;51.124;4.182;2024-02-26T04:23:33;10.35;;;8.43;;
41903;SDS011;27586;51.124;4.182;2024-02-26T04:25:58;9.35;;;7.50;;
41903;SDS011;27586;51.124;4.182;2024-02-26T04:28:24;7.30;;;6.60;;
41903;SDS011;27586;51.124;4.182;2024-02-26T04:30:56;7.97;;;7.28;;
41903;SDS011;27586;51.124;4.182;2024-02-26T04:33:21;8.30;;;7.50;;
41903;SDS011;27586;51.124;4.182;2024-02-26T04:35:47;8.50;;;7.45;;
41903;SDS011;27586;51.124;4.182;2024-02-26T04:38:12;8.25;;;7.45;;
41903;SDS011;27586;51.124;4.182;2024-02-26T04:40:38;8.38;;;7.45;;
41903;SDS011;27586;51.124;4.182;2024-02-26T04:43:04;8.80;;;7.47;;
41903;SDS011;27586;51.124;4.182;2024-02-26T04:45:29;10.45;;;9.45;;
41903;SDS011;27586;51.124;4.182;2024-02-26T04:47:55;10.85;;;9.75;;
41903;SDS011;27586;51.124;4.182;2024-02-26T04:50:20;9.93;;;8.93;;
41903;SDS011;27586;51.124;4.182;2024-02-26T04:52:46;9.40;;;8.45;;
41903;SDS011;27586;51.124;4.182;2024-02-26T04:55:12;7.72;;;6.90;;
41903;SDS011;27586;51.124;4.182;2024-02-26T04:57:37;7.32;;;6.63;;
41903;SDS011;27586;51.124;4.182;2024-02-26T05:00:04;7.90;;;6.13;;
41903;SDS011;27586;51.124;4.182;2024-02-26T05:02:30;8.77;;;6.05;;
41903;SDS011;27586;51.124;4.182;2024-02-26T05:04:58;6.97;;;6.18;;
41903;SDS011;27586;51.124;4.182;2024-02-26T05:07:24;6.30;;;5.70;;
41903;SDS011;27586;51.124;4.182;2024-02-26T05:09:50;6.53;;;5.88;;
41903;SDS011;27586;51.124;4.182;2024-02-26T05:12:15;6.43;;;5.82;;
41903;SDS011;27586;51.124;4.182;2024-02-26T05:14:41;6.38;;;5.78;;
41903;SDS011;27586;51.124;4.182;2024-02-26T05:17:07;6.95;;;6.30;;
41903;SDS011;27586;51.124;4.182;2024-02-26T05:19:33;6.50;;;5.90;;
41903;SDS011;27586;51.124;4.182;2024-02-26T05:21:59;6.38;;;5.65;;
41903;SDS011;27586;51.124;4.182;2024-02-26T05:24:24;7.18;;;5.43;;
41903;SDS011;27586;51.124;4.182;2024-02-26T05:26:50;8.35;;;6.13;;
41903;SDS011;27586;51.124;4.182;2024-02-26T05:29:16;6.72;;;6.15;;
41903;SDS011;27586;51.124;4.182;2024-02-26T05:31:42;6.72;;;6.13;;
41903;SDS011;27586;51.124;4.182;2024-02-26T05:34:08;6.38;;;5.78;;
41903;SDS011;27586;51.124;4.182;2024-02-26T05:36:33;7.15;;;6.28;;
41903;SDS011;27586;51.124;4.182;2024-02-26T05:39:00;7.22;;;6.53;;
41903;SDS011;27586;51.124;4.182;2024-02-26T05:41:26;6.40;;;5.80;;
41903;SDS011;27586;51.124;4.182;2024-02-26T05:43:54;7.05;;;6.35;;
41903;SDS011;27586;51.124;4.182;2024-02-26T05:46:21;6.55;;;5.95;;
41903;SDS011;27586;51.124;4.182;2024-02-26T05:48:48;7.90;;;6.07;;
41903;SDS011;27586;51.124;4.182;2024-02-26T05:51:15;6.38;;;5.78;;
41903;SDS011;27586;51.124;4.182;2024-02-26T05:53:41;6.65;;;5.95;;
41903;SDS011;27586;51.124;4.182;2024-02-26T05:56:07;7.82;;;6.72;;
41903;SDS011;27586;51.124;4.182;2024-02-26T05:58:32;10.05;;;9.05;;
41903;SDS011;27586;51.124;4.182;2024-02-26T06:00:58;13.73;;;10.00;;
41903;SDS011;27586;51.124;4.182;2024-02-26T06:03:25;13.40;;;11.57;;
41903;SDS011;27586;51.124;4.182;2024-02-26T06:05:51;7.78;;;7.03;;
41903;SDS011;27586;51.124;4.182;2024-02-26T06:08:17;6.00;;;5.40;;
41903;SDS011;27586;51.124;4.182;2024-02-26T06:10:42;8.07;;;7.28;;
41903;SDS011;27586;51.124;4.182;2024-02-26T06:13:08;7.85;;;7.03;;
41903;SDS011;27586;51.124;4.182;2024-02-26T06:15:33;8.85;;;7.90;;
41903;SDS011;27586;51.124;4.182;2024-02-26T06:17:59;6.32;;;5.72;;
41903;SDS011;27586;51.124;4.182;2024-02-26T06:20:25;7.15;;;6.15;;
41903;SDS011;27586;51.124;4.182;2024-02-26T06:22:50;16.40;;;14.80;;
41903;SDS011;27586;51.124;4.182;2024-02-26T06:25:16;11.15;;;10.27;;
41903;SDS011;27586;51.124;4.182;2024-02-26T06:27:42;6.00;;;5.50;;
41903;SDS011;27586;51.124;4.182;2024-02-26T06:30:08;7.88;;;7.07;;
41903;SDS011;27586;51.124;4.182;2024-02-26T06:32:36;6.32;;;5.72;;
41903;SDS011;27586;51.124;4.182;2024-02-26T06:35:02;8.18;;;7.40;;
41903;SDS011;27586;51.124;4.182;2024-02-26T06:37:32;6.60;;;5.93;;
41903;SDS011;27586;51.124;4.182;2024-02-26T06:39:58;7.03;;;6.10;;
41903;SDS011;27586;51.124;4.182;2024-02-26T06:42:25;6.30;;;5.75;;
41903;SDS011;27586;51.124;4.182;2024-02-26T06:44:50;6.60;;;6.00;;
41903;SDS011;27586;51.124;4.182;2024-02-26T06:47:16;5.90;;;5.28;;
41903;SDS011;27586;51.124;4.182;2024-02-26T06:49:42;6.10;;;5.60;;
41903;SDS011;27586;51.124;4.182;2024-02-26T06:52:08;6.40;;;5.75;;
41903;SDS011;27586;51.124;4.182;2024-02-26T06:54:34;8.20;;;7.50;;
41903;SDS011;27586;51.124;4.182;2024-02-26T06:56:59;9.48;;;7.15;;
41903;SDS011;27586;51.124;4.182;2024-02-26T06:59:25;7.72;;;7.03;;
41903;SDS011;27586;51.124;4.182;2024-02-26T07:01:51;7.30;;;6.60;;
41903;SDS011;27586;51.124;4.182;2024-02-26T07:04:17;8.10;;;6.07;;
41903;SDS011;27586;51.124;4.182;2024-02-26T07:06:42;7.80;;;6.28;;
41903;SDS011;27586;51.124;4.182;2024-02-26T07:09:08;6.18;;;5.65;;
41903;SDS011;27586;51.124;4.182;2024-02-26T07:11:37;6.20;;;5.60;;
41903;SDS011;27586;51.124;4.182;2024-02-26T07:14:03;8.00;;;6.43;;
41903;SDS011;27586;51.124;4.182;2024-02-26T07:16:28;5.90;;;5.30;;
41903;SDS011;27586;51.124;4.182;2024-02-26T07:18:54;6.63;;;6.00;;
41903;SDS011;27586;51.124;4.182;2024-02-26T07:21:20;6.28;;;5.43;;
41903;SDS011;27586;51.124;4.182;2024-02-26T07:23:45;5.72;;;4.80;;
41903;SDS011;27586;51.124;4.182;2024-02-26T07:26:11;6.43;;;5.82;;
41903;SDS011;27586;51.124;4.182;2024-02-26T07:28:37;6.15;;;5.60;;
41903;SDS011;27586;51.124;4.182;2024-02-26T07:31:03;7.47;;;6.78;;
41903;SDS011;27586;51.124;4.182;2024-02-26T07:33:28;7.32;;;6.70;;
41903;SDS011;27586;51.124;4.182;2024-02-26T07:35:54;6.22;;;5.63;;
41903;SDS011;27586;51.124;4.182;2024-02-26T07:38:20;6.30;;;5.75;;
41903;SDS011;27586;51.124;4.182;2024-02-26T07:40:45;6.35;;;5.75;;
41903;SDS011;27586;51.124;4.182;2024-02-26T07:43:11;5.88;;;5.28;;
41903;SDS011;27586;51.124;4.182;2024-02-26T07:45:37;6.47;;;5.82;;
41903;SDS011;27586;51.124;4.182;2024-02-26T07:48:03;6.45;;;5.88;;
41903;SDS011;27586;51.124;4.182;2024-02-26T07:50:28;6.25;;;5.30;;
41903;SDS011;27586;51.124;4.182;2024-02-26T07:52:54;6.28;;;5.68;;
41903;SDS011;27586;51.124;4.182;2024-02-26T07:55:20;5.70;;;5.15;;
41903;SDS011;27586;51.124;4.182;2024-02-26T07:57:46;6.25;;;5.65;;
41903;SDS011;27586;51.124;4.182;2024-02-26T08:00:11;6.25;;;5.75;;
41903;SDS011;27586;51.124;4.182;2024-02-26T08:02:41;5.45;;;4.72;;
41903;SDS011;27586;51.124;4.182;2024-02-26T08:05:08;9.80;;;8.93;;
41903;SDS011;27586;51.124;4.182;2024-02-26T08:07:34;9.32;;;8.52;;
41903;SDS011;27586;51.124;4.182;2024-02-26T08:09:59;7.60;;;6.25;;
41903;SDS011;27586;51.124;4.182;2024-02-26T08:12:25;8.63;;;7.82;;
41903;SDS011;27586;51.124;4.182;2024-02-26T08:14:51;9.05;;;8.15;;
41903;SDS011;27586;51.124;4.182;2024-02-26T08:17:16;7.03;;;5.60;;
41903;SDS011;27586;51.124;4.182;2024-02-26T08:19:42;7.13;;;5.85;;
41903;SDS011;27586;51.124;4.182;2024-02-26T08:22:08;8.00;;;7.07;;
41903;SDS011;27586;51.124;4.182;2024-02-26T08:24:35;7.30;;;6.60;;
41903;SDS011;27586;51.124;4.182;2024-02-26T08:27:01;6.68;;;5.50;;
41903;SDS011;27586;51.124;4.182;2024-02-26T08:29:27;5.75;;;5.25;;
41903;SDS011;27586;51.124;4.182;2024-02-26T08:31:53;5.65;;;4.78;;
41903;SDS011;27586;51.124;4.182;2024-02-26T08:34:18;5.68;;;5.00;;
41903;SDS011;27586;51.124;4.182;2024-02-26T08:36:44;6.53;;;5.90;;
41903;SDS011;27586;51.124;4.182;2024-02-26T08:39:10;6.30;;;5.70;;
41903;SDS011;27586;51.124;4.182;2024-02-26T08:41:35;5.45;;;4.95;;
41903;SDS011;27586;51.124;4.182;2024-02-26T08:44:01;6.47;;;5.85;;
41903;SDS011;27586;51.124;4.182;2024-02-26T08:46:27;6.28;;;5.45;;
41903;SDS011;27586;51.124;4.182;2024-02-26T08:48:52;7.13;;;5.50;;
41903;SDS011;27586;51.124;4.182;2024-02-26T08:51:18;6.65;;;5.78;;
41903;SDS011;27586;51.124;4.182;2024-02-26T08:53:44;6.28;;;5.68;;
41903;SDS011;27586;51.124;4.182;2024-02-26T08:56:09;7.07;;;5.63;;
41903;SDS011;27586;51.124;4.182;2024-02-26T08:58:42;6.20;;;5.60;;
41903;SDS011;27586;51.124;4.182;2024-02-26T09:01:13;6.60;;;5.63;;
41903;SDS011;27586;51.124;4.182;2024-02-26T09:03:42;6.75;;;5.85;;
41903;SDS011;27586;51.124;4.182;2024-02-26T09:06:08;14.18;;;6.60;;
41903;SDS011;27586;51.124;4.182;2024-02-26T09:08:34;6.45;;;5.45;;
41903;SDS011;27586;51.124;4.182;2024-02-26T09:11:01;7.00;;;6.30;;
41903;SDS011;27586;51.124;4.182;2024-02-26T09:13:28;7.85;;;5.95;;
41903;SDS011;27586;51.124;4.182;2024-02-26T09:15:54;7.28;;;6.13;;
41903;SDS011;27586;51.124;4.182;2024-02-26T09:18:20;8.90;;;6.07;;
41903;SDS011;27586;51.124;4.182;2024-02-26T09:20:45;6.85;;;6.22;;
41903;SDS011;27586;51.124;4.182;2024-02-26T09:23:11;7.10;;;6.07;;
41903;SDS011;27586;51.124;4.182;2024-02-26T09:25:37;6.93;;;6.32;;
41903;SDS011;27586;51.124;4.182;2024-02-26T09:28:02;7.75;;;6.40;;
41903;SDS011;27586;51.124;4.182;2024-02-26T09:30:28;7.40;;;6.70;;
41903;SDS011;27586;51.124;4.182;2024-02-26T09:32:54;6.43;;;5.80;;
41903;SDS011;27586;51.124;4.182;2024-02-26T09:35:20;7.60;;;6.80;;
41903;SDS011;27586;51.124;4.182;2024-02-26T09:37:46;6.88;;;6.22;;
41903;SDS011;27586;51.124;4.182;2024-02-26T09:40:14;7.05;;;6.35;;
41903;SDS011;27586;51.124;4.182;2024-02-26T09:42:43;8.48;;;7.05;;
41903;SDS011;27586;51.124;4.182;2024-02-26T09:45:19;7.50;;;5.97;;
41903;SDS011;27586;51.124;4.182;2024-02-26T09:47:47;6.68;;;6.07;;
41903;SDS011;27586;51.124;4.182;2024-02-26T09:50:17;6.45;;;5.85;;
41903;SDS011;27586;51.124;4.182;2024-02-26T09:52:43;8.38;;;7.57;;
41903;SDS011;27586;51.124;4.182;2024-02-26T09:55:09;14.48;;;13.00;;
41903;SDS011;27586;51.124;4.182;2024-02-26T09:57:38;10.98;;;9.90;;
41903;SDS011;27586;51.124;4.182;2024-02-26T10:00:10;8.40;;;7.60;;
41903;SDS011;27586;51.124;4.182;2024-02-26T10:02:39;6.75;;;6.13;;
41903;SDS011;27586;51.124;4.182;2024-02-26T10:05:05;8.88;;;8.07;;
41903;SDS011;27586;51.124;4.182;2024-02-26T10:07:35;8.60;;;7.75;;
41903;SDS011;27586;51.124;4.182;2024-02-26T10:10:01;8.38;;;7.22;;
41903;SDS011;27586;51.124;4.182;2024-02-26T10:12:27;7.90;;;7.20;;
41903;SDS011;27586;51.124;4.182;2024-02-26T10:14:54;8.95;;;8.10;;
41903;SDS011;27586;51.124;4.182;2024-02-26T10:17:19;8.85;;;8.00;;
41903;SDS011;27586;51.124;4.182;2024-02-26T10:19:45;7.57;;;6.88;;
41903;SDS011;27586;51.124;4.182;2024-02-26T10:22:11;7.65;;;6.93;;
41903;SDS011;27586;51.124;4.182;2024-02-26T10:24:36;7.97;;;7.18;;
41903;SDS011;27586;51.124;4.182;2024-02-26T10:27:02;7.93;;;7.13;;
41903;SDS011;27586;51.124;4.182;2024-02-26T10:29:28;6.97;;;6.38;;
41903;SDS011;27586;51.124;4.182;2024-02-26T10:31:54;8.40;;;7.60;;
41903;SDS011;27586;51.124;4.182;2024-02-26T10:34:21;8.48;;;7.28;;
41903;SDS011;27586;51.124;4.182;2024-02-26T10:36:48;9.18;;;8.27;;
41903;SDS011;27586;51.124;4.182;2024-02-26T10:39:14;8.80;;;7.90;;
41903;SDS011;27586;51.124;4.182;2024-02-26T10:41:41;9.30;;;8.32;;
41903;SDS011;27586;51.124;4.182;2024-02-26T10:44:11;8.68;;;7.82;;
41903;SDS011;27586;51.124;4.182;2024-02-26T10:46:38;9.10;;;7.72;;
41903;SDS011;27586;51.124;4.182;2024-02-26T10:49:08;11.38;;;8.77;;
41903;SDS011;27586;51.124;4.182;2024-02-26T10:51:38;10.55;;;8.70;;
41903;SDS011;27586;51.124;4.182;2024-02-26T10:54:07;10.13;;;8.88;;
41903;SDS011;27586;51.124;4.182;2024-02-26T10:56:35;10.30;;;8.82;;
41903;SDS011;27586;51.124;4.182;2024-02-26T10:59:04;9.25;;;8.15;;
41903;SDS011;27586;51.124;4.182;2024-02-26T11:01:33;9.38;;;8.38;;
41903;SDS011;27586;51.124;4.182;2024-02-26T11:04:02;10.00;;;8.93;;
41903;SDS011;27586;51.124;4.182;2024-02-26T11:06:28;10.65;;;9.07;;
41903;SDS011;27586;51.124;4.182;2024-02-26T11:08:54;9.88;;;8.82;;
41903;SDS011;27586;51.124;4.182;2024-02-26T11:11:20;8.80;;;7.90;;
41903;SDS011;27586;51.124;4.182;2024-02-26T11:13:47;9.40;;;8.25;;
41903;SDS011;27586;51.124;4.182;2024-02-26T11:16:19;10.57;;;9.38;;
41903;SDS011;27586;51.124;4.182;2024-02-26T11:18:46;10.57;;;8.93;;
41903;SDS011;27586;51.124;4.182;2024-02-26T11:21:16;9.30;;;8.35;;
41903;SDS011;27586;51.124;4.182;2024-02-26T11:23:48;12.07;;;10.88;;
41903;SDS011;27586;51.124;4.182;2024-02-26T11:26:14;9.77;;;8.55;;
41903;SDS011;27586;51.124;4.182;2024-02-26T11:28:42;8.98;;;8.07;;
41903;SDS011;27586;51.124;4.182;2024-02-26T11:31:09;10.40;;;8.63;;
41903;SDS011;27586;51.124;4.182;2024-02-26T11:33:36;10.98;;;9.80;;
41903;SDS011;27586;51.124;4.182;2024-02-26T11:36:11;10.13;;;8.98;;
41903;SDS011;27586;51.124;4.182;2024-02-26T11:38:39;11.15;;;9.63;;
41903;SDS011;27586;51.124;4.182;2024-02-26T11:41:05;9.02;;;7.78;;
41903;SDS011;27586;51.124;4.182;2024-02-26T11:43:49;8.65;;;7.72;;
41903;SDS011;27586;51.124;4.182;2024-02-26T11:46:28;10.77;;;8.02;;
41903;SDS011;27586;51.124;4.182;2024-02-26T11:49:02;7.85;;;7.05;;
41903;SDS011;27586;51.124;4.182;2024-02-26T11:51:32;10.20;;;7.70;;
41903;SDS011;27586;51.124;4.182;2024-02-26T11:54:00;9.13;;;6.97;;
41903;SDS011;27586;51.124;4.182;2024-02-26T11:56:26;9.65;;;7.22;;
41903;SDS011;27586;51.124;4.182;2024-02-26T11:58:59;10.13;;;8.57;;
41903;SDS011;27586;51.124;4.182;2024-02-26T12:04:01;10.15;;;9.23;;
41903;SDS011;27586;51.124;4.182;2024-02-26T12:06:30;9.32;;;8.38;;
41903;SDS011;27586;51.124;4.182;2024-02-26T12:08:56;11.27;;;10.10;;
41903;SDS011;27586;51.124;4.182;2024-02-26T12:11:21;11.02;;;8.45;;
41903;SDS011;27586;51.124;4.182;2024-02-26T12:13:47;9.77;;;8.60;;
41903;SDS011;27586;51.124;4.182;2024-02-26T12:19:04;10.73;;;8.50;;
41903;SDS011;27586;51.124;4.182;2024-02-26T12:21:32;11.35;;;9.85;;
41903;SDS011;27586;51.124;4.182;2024-02-26T12:24:13;12.18;;;9.25;;
41903;SDS011;27586;51.124;4.182;2024-02-26T12:26:41;10.90;;;8.57;;
41903;SDS011;27586;51.124;4.182;2024-02-26T12:29:07;10.15;;;8.35;;
41903;SDS011;27586;51.124;4.182;2024-02-26T12:31:33;10.75;;;9.52;;
41903;SDS011;27586;51.124;4.182;2024-02-26T12:34:02;9.80;;;8.07;;
41903;SDS011;27586;51.124;4.182;2024-02-26T12:36:28;9.32;;;8.43;;
41903;SDS011;27586;51.124;4.182;2024-02-26T12:38:55;8.70;;;7.22;;
41903;SDS011;27586;51.124;4.182;2024-02-26T12:41:21;8.65;;;7.47;;
41903;SDS011;27586;51.124;4.182;2024-02-26T12:43:47;9.05;;;7.57;;
41903;SDS011;27586;51.124;4.182;2024-02-26T12:46:13;9.32;;;7.22;;
41903;SDS011;27586;51.124;4.182;2024-02-26T12:48:43;9.57;;;7.32;;
41903;SDS011;27586;51.124;4.182;2024-02-26T12:51:10;10.07;;;7.78;;
41903;SDS011;27586;51.124;4.182;2024-02-26T12:53:40;9.13;;;7.05;;
41903;SDS011;27586;51.124;4.182;2024-02-26T12:56:09;8.43;;;7.53;;
41903;SDS011;27586;51.124;4.182;2024-02-26T12:58:37;10.48;;;9.40;;
41903;SDS011;27586;51.124;4.182;2024-02-26T13:01:04;11.07;;;9.98;;
41903;SDS011;27586;51.124;4.182;2024-02-26T13:03:31;10.07;;;8.18;;
41903;SDS011;27586;51.124;4.182;2024-02-26T13:05:58;11.52;;;9.07;;
41903;SDS011;27586;51.124;4.182;2024-02-26T13:08:24;12.00;;;10.80;;
41903;SDS011;27586;51.124;4.182;2024-02-26T13:10:50;8.68;;;7.22;;
41903;SDS011;27586;51.124;4.182;2024-02-26T13:13:17;9.02;;;8.13;;
41903;SDS011;27586;51.124;4.182;2024-02-26T13:15:43;9.23;;;7.85;;
41903;SDS011;27586;51.124;4.182;2024-02-26T13:18:10;8.02;;;6.97;;
41903;SDS011;27586;51.124;4.182;2024-02-26T13:20:36;8.82;;;7.93;;
41903;SDS011;27586;51.124;4.182;2024-02-26T13:23:05;8.25;;;7.45;;
41903;SDS011;27586;51.124;4.182;2024-02-26T13:25:32;8.93;;;7.50;;
41903;SDS011;27586;51.124;4.182;2024-02-26T13:30:37;9.02;;;7.97;;
41903;SDS011;27586;51.124;4.182;2024-02-26T13:33:09;8.73;;;7.38;;
41903;SDS011;27586;51.124;4.182;2024-02-26T13:35:36;8.45;;;7.22;;
41903;SDS011;27586;51.124;4.182;2024-02-26T13:38:04;10.85;;;8.80;;
41903;SDS011;27586;51.124;4.182;2024-02-26T13:40:30;9.15;;;8.20;;
41903;SDS011;27586;51.124;4.182;2024-02-26T13:42:56;8.18;;;7.10;;
41903;SDS011;27586;51.124;4.182;2024-02-26T13:45:22;8.15;;;7.05;;
41903;SDS011;27586;51.124;4.182;2024-02-26T13:47:47;8.63;;;7.40;;
41903;SDS011;27586;51.124;4.182;2024-02-26T13:50:13;8.45;;;7.63;;
41903;SDS011;27586;51.124;4.182;2024-02-26T13:52:39;8.75;;;7.05;;
41903;SDS011;27586;51.124;4.182;2024-02-26T13:55:04;9.15;;;8.25;;
41903;SDS011;27586;51.124;4.182;2024-02-26T13:57:32;8.88;;;7.50;;
41903;SDS011;27586;51.124;4.182;2024-02-26T13:59:58;8.25;;;7.45;;
41903;SDS011;27586;51.124;4.182;2024-02-26T14:02:23;8.23;;;7.45;;
41903;SDS011;27586;51.124;4.182;2024-02-26T14:04:49;7.93;;;7.13;;
41903;SDS011;27586;51.124;4.182;2024-02-26T14:07:15;8.23;;;7.38;;
41903;SDS011;27586;51.124;4.182;2024-02-26T14:09:42;6.95;;;6.25;;
41903;SDS011;27586;51.124;4.182;2024-02-26T14:12:08;7.47;;;6.20;;
41903;SDS011;27586;51.124;4.182;2024-02-26T14:14:34;9.00;;;7.68;;
41903;SDS011;27586;51.124;4.182;2024-02-26T14:17:03;9.77;;;7.95;;
41903;SDS011;27586;51.124;4.182;2024-02-26T14:19:29;8.70;;;7.80;;
41903;SDS011;27586;51.124;4.182;2024-02-26T14:21:54;15.80;;;12.93;;
41903;SDS011;27586;51.124;4.182;2024-02-26T14:24:20;8.23;;;6.70;;
41903;SDS011;27586;51.124;4.182;2024-02-26T14:26:46;10.00;;;8.23;;
41903;SDS011;27586;51.124;4.182;2024-02-26T14:29:11;8.93;;;7.72;;
41903;SDS011;27586;51.124;4.182;2024-02-26T14:31:37;9.32;;;8.43;;
41903;SDS011;27586;51.124;4.182;2024-02-26T14:34:03;9.63;;;8.40;;
41903;SDS011;27586;51.124;4.182;2024-02-26T14:36:28;9.07;;;8.20;;
41903;SDS011;27586;51.124;4.182;2024-02-26T14:38:54;8.55;;;7.38;;
41903;SDS011;27586;51.124;4.182;2024-02-26T14:41:20;8.15;;;7.35;;
41903;SDS011;27586;51.124;4.182;2024-02-26T14:43:45;8.27;;;7.38;;
41903;SDS011;27586;51.124;4.182;2024-02-26T14:46:11;7.50;;;6.80;;
41903;SDS011;27586;51.124;4.182;2024-02-26T14:48:37;7.68;;;6.93;;